Time;durP1;ratioP1;P1;durP2;ratioP2;P2;SDS_P1;SDS_P2;PMS_P1;PMS_P2;Temp;Humidity;BMP_temperature;BMP_pressure;BME280_temperature;BME280_humidity;BME280_pressure;Samples;Min_cycle;Max_cycle;Signal;HPM_P1;HPM_P2
2021/01/16 00:00:26;;;;;;;0.40;0.40;;;-0.40;99.90;;;;;;4415812;32;20125;-75
2021/01/16 00:02:52;;;;;;;0.68;0.68;;;-0.50;99.90;;;;;;4415594;32;20073;-75
2021/01/16 00:05:19;;;;;;;0.30;0.30;;;-0.50;99.90;;;;;;4415935;32;20065;-75
2021/01/16 00:07:46;;;;;;;0.40;0.40;;;-0.50;99.90;;;;;;4403659;32;20082;-75
2021/01/16 00:10:14;;;;;;;0.40;0.40;;;-0.40;99.90;;;;;;4401547;32;20117;-75
2021/01/16 00:12:41;;;;;;;3.03;0.52;;;-0.30;99.90;;;;;;4412738;32;20065;-75
2021/01/16 00:15:08;;;;;;;0.30;0.30;;;-0.30;99.90;;;;;;4416747;32;20065;-75
2021/01/16 00:17:33;;;;;;;0.30;0.30;;;-0.30;99.90;;;;;;4400841;32;20070;-75
2021/01/16 00:19:59;;;;;;;0.40;0.40;;;-0.30;99.90;;;;;;4399972;32;20058;-75
2021/01/16 00:22:24;;;;;;;0.52;0.52;;;-0.30;99.90;;;;;;4399501;32;20484;-75
2021/01/16 00:24:50;;;;;;;0.32;0.32;;;-0.30;99.90;;;;;;4400006;32;20134;-75
2021/01/16 00:27:15;;;;;;;0.30;0.30;;;-0.30;99.90;;;;;;4400993;32;20086;-75
2021/01/16 00:29:41;;;;;;;0.40;0.40;;;-0.30;99.90;;;;;;4400482;32;20078;-75
2021/01/16 00:32:06;;;;;;;0.50;0.50;;;-0.30;99.90;;;;;;4400369;32;20417;-75
2021/01/16 00:34:32;;;;;;;0.40;0.40;;;-0.40;99.90;;;;;;4400445;32;20070;-75
2021/01/16 00:36:57;;;;;;;0.40;0.40;;;-0.40;99.90;;;;;;4400008;32;20070;-75
2021/01/16 00:39:23;;;;;;;0.60;0.60;;;-0.50;99.90;;;;;;4399518;32;20129;-75
2021/01/16 00:41:48;;;;;;;0.40;0.40;;;-0.40;99.90;;;;;;4400822;32;20116;-75
2021/01/16 00:44:14;;;;;;;0.30;0.30;;;-0.50;99.90;;;;;;4400374;32;20126;-75
2021/01/16 00:46:39;;;;;;;0.30;0.30;;;-0.50;99.90;;;;;;4400986;32;20429;-75
2021/01/16 00:49:05;;;;;;;0.62;0.62;;;-0.40;99.90;;;;;;4400358;32;20074;-75
2021/01/16 00:51:30;;;;;;;0.37;0.37;;;-0.50;99.90;;;;;;4401333;32;20089;-75
2021/01/16 00:53:55;;;;;;;0.35;0.35;;;-0.40;99.90;;;;;;4400056;32;20070;-75
2021/01/16 00:56:21;;;;;;;0.47;0.47;;;-0.40;99.90;;;;;;4400153;32;20452;-75
2021/01/16 00:58:46;;;;;;;0.40;0.40;;;-0.40;99.90;;;;;;4400385;32;20074;-76
2021/01/16 01:01:12;;;;;;;0.37;0.37;;;-0.50;99.90;;;;;;4400037;32;20117;-75
2021/01/16 01:03:37;;;;;;;0.32;0.32;;;-0.50;99.90;;;;;;4399775;32;20441;-75
2021/01/16 01:06:03;;;;;;;0.30;0.30;;;-0.40;99.90;;;;;;4398980;32;20095;-75
2021/01/16 01:08:29;;;;;;;0.32;0.32;;;-0.40;99.90;;;;;;4384202;32;20066;-75
2021/01/16 01:10:56;;;;;;;0.30;0.30;;;-0.40;99.90;;;;;;4388121;32;20070;-75
2021/01/16 01:13:21;;;;;;;0.32;0.32;;;-0.40;99.90;;;;;;4415143;32;20082;-75
2021/01/16 01:15:47;;;;;;;0.40;0.40;;;-0.40;99.90;;;;;;4414945;32;20066;-75
2021/01/16 01:18:12;;;;;;;0.30;0.30;;;-0.40;99.90;;;;;;4415802;32;20070;-75
2021/01/16 01:20:38;;;;;;;0.40;0.40;;;-0.40;99.90;;;;;;4414152;32;20522;-75
2021/01/16 01:23:03;;;;;;;0.40;0.40;;;-0.40;99.90;;;;;;4414208;32;20053;-75
2021/01/16 01:25:29;;;;;;;0.40;0.40;;;-0.50;99.90;;;;;;4414590;32;20074;-75
2021/01/16 01:27:56;;;;;;;0.30;0.30;;;-0.50;99.90;;;;;;4415247;32;20567;-75
2021/01/16 01:30:24;;;;;;;0.90;0.60;;;-0.50;99.90;;;;;;4414712;32;20132;-75
2021/01/16 01:32:50;;;;;;;0.40;0.40;;;-0.50;99.90;;;;;;4414736;32;20124;-75
2021/01/16 01:35:17;;;;;;;0.30;0.30;;;-0.50;99.90;;;;;;4414535;32;20070;-75
2021/01/16 01:37:46;;;;;;;0.45;0.45;;;-0.40;99.90;;;;;;4414119;32;20117;-75
2021/01/16 01:40:13;;;;;;;0.37;0.37;;;-0.40;99.90;;;;;;4414545;32;20093;-75
2021/01/16 01:42:39;;;;;;;0.40;0.40;;;-0.30;99.90;;;;;;4414357;32;20108;-75
2021/01/16 01:45:09;;;;;;;0.30;0.30;;;-0.40;99.90;;;;;;4415500;32;20400;-75
2021/01/16 01:47:36;;;;;;;0.50;0.50;;;-0.40;99.90;;;;;;4415272;32;20078;-75
2021/01/16 01:50:04;;;;;;;0.30;0.30;;;-0.30;99.90;;;;;;4414164;32;20065;-75
2021/01/16 01:52:30;;;;;;;0.30;0.30;;;-0.20;99.90;;;;;;4414404;32;20504;-75
2021/01/16 01:54:57;;;;;;;0.30;0.30;;;-0.30;99.90;;;;;;4414719;32;20077;-75
2021/01/16 01:57:25;;;;;;;0.40;0.40;;;-0.30;99.90;;;;;;4415372;32;20436;-75
2021/01/16 01:59:53;;;;;;;0.40;0.40;;;-0.40;99.90;;;;;;4414296;32;20065;-75
2021/01/16 02:02:19;;;;;;;0.50;0.50;;;-0.40;99.90;;;;;;4414654;32;20061;-75
2021/01/16 02:04:46;;;;;;;0.35;0.35;;;-0.40;99.90;;;;;;4414479;32;20090;-75
2021/01/16 02:07:29;;;;;;;0.37;0.37;;;-0.50;99.90;;;;;;4405526;32;20133;-75
2021/01/16 02:09:55;;;;;;;0.30;0.30;;;-0.60;99.90;;;;;;4399135;32;20385;-75
2021/01/16 02:12:22;;;;;;;0.40;0.40;;;-0.70;99.90;;;;;;4409595;32;20076;-75
2021/01/16 02:15:02;;;;;;;0.30;0.30;;;-0.60;99.90;;;;;;4413728;32;20074;-75
2021/01/16 02:17:29;;;;;;;0.30;0.30;;;-0.50;99.90;;;;;;4414034;32;20077;-75
2021/01/16 02:20:06;;;;;;;0.40;0.40;;;-0.50;99.90;;;;;;4413769;32;20061;-75
2021/01/16 02:22:42;;;;;;;0.40;0.40;;;-0.50;99.90;;;;;;4413901;32;20073;-75
2021/01/16 02:25:12;;;;;;;0.40;0.40;;;-0.60;99.90;;;;;;4414672;32;20057;-75
2021/01/16 02:27:58;;;;;;;0.77;0.77;;;-0.50;99.90;;;;;;4413676;32;20066;-75
2021/01/16 02:30:26;;;;;;;0.30;0.30;;;-0.60;99.90;;;;;;4413238;32;20445;-75
2021/01/16 02:32:52;;;;;;;0.40;0.40;;;-0.70;99.90;;;;;;4414206;32;20065;-75
2021/01/16 02:35:19;;;;;;;0.30;0.30;;;-0.60;99.90;;;;;;4414166;32;20061;-75
2021/01/16 02:38:02;;;;;;;0.32;0.32;;;-0.60;99.90;;;;;;4413278;32;20162;-75
2021/01/16 02:40:35;;;;;;;0.30;0.30;;;-0.60;99.90;;;;;;4413789;32;20078;-75
2021/01/16 02:43:11;;;;;;;0.40;0.40;;;-0.60;99.90;;;;;;4414166;32;20062;-75
2021/01/16 02:45:44;;;;;;;0.30;0.30;;;-0.60;99.90;;;;;;4414086;32;20062;-75
2021/01/16 02:48:30;;;;;;;0.32;0.32;;;-0.70;99.90;;;;;;4414774;32;20116;-75
2021/01/16 02:51:01;;;;;;;0.40;0.40;;;-0.70;99.90;;;;;;4413608;32;20066;-75
2021/01/16 02:53:35;;;;;;;0.45;0.45;;;-0.60;99.90;;;;;;4413492;32;20361;-75
2021/01/16 02:56:14;;;;;;;0.43;0.43;;;-0.70;99.90;;;;;;4413756;32;20073;-75
2021/01/16 02:58:39;;;;;;;1.02;0.77;;;-0.80;99.90;;;;;;4413737;32;20507;-75
2021/01/16 03:01:04;;;;;;;0.30;0.30;;;-0.80;99.90;;;;;;4414454;32;20074;-75
2021/01/16 03:03:31;;;;;;;0.50;0.50;;;-0.90;99.90;;;;;;4413755;32;20511;-75
2021/01/16 03:05:57;;;;;;;0.40;0.40;;;-0.90;99.90;;;;;;4414843;32;20523;-75
2021/01/16 03:08:23;;;;;;;0.40;0.40;;;-1.00;99.90;;;;;;4398283;32;20094;-74
2021/01/16 03:10:49;;;;;;;0.60;0.60;;;-0.90;99.90;;;;;;4399014;32;20570;-75
2021/01/16 03:13:14;;;;;;;0.40;0.40;;;-0.90;99.90;;;;;;4413412;32;20129;-75
2021/01/16 03:15:41;;;;;;;0.47;0.47;;;-0.90;99.90;;;;;;4413898;32;20065;-75
2021/01/16 03:18:08;;;;;;;0.35;0.35;;;-1.00;99.90;;;;;;4413398;32;20431;-75
2021/01/16 03:20:33;;;;;;;0.30;0.30;;;-1.10;99.90;;;;;;4413863;32;20120;-75
2021/01/16 03:23:01;;;;;;;0.40;0.40;;;-1.10;99.90;;;;;;4413395;32;20436;-75
2021/01/16 03:25:29;;;;;;;0.50;0.50;;;-1.10;99.90;;;;;;4413750;32;20073;-75
2021/01/16 03:27:56;;;;;;;0.40;0.40;;;-1.10;99.90;;;;;;4415178;32;20078;-75
2021/01/16 03:30:22;;;;;;;0.30;0.30;;;-1.10;99.90;;;;;;4416494;32;20086;-75
2021/01/16 03:32:49;;;;;;;0.45;0.45;;;-1.10;99.90;;;;;;4417799;32;20058;-75
2021/01/16 03:35:16;;;;;;;0.30;0.30;;;-1.10;99.90;;;;;;4418757;32;20429;-76
2021/01/16 03:37:44;;;;;;;0.40;0.40;;;-0.90;99.90;;;;;;4418823;32;20074;-75
2021/01/16 03:40:10;;;;;;;0.40;0.40;;;-0.80;99.90;;;;;;4415781;32;20117;-75
2021/01/16 03:42:36;;;;;;;1.08;0.93;;;-0.80;99.90;;;;;;4417042;32;20491;-75
2021/01/16 03:45:04;;;;;;;0.37;0.37;;;-0.80;99.90;;;;;;4415708;32;20078;-74
2021/01/16 03:47:29;;;;;;;1.85;0.77;;;-0.80;99.90;;;;;;4416207;32;20124;-74
2021/01/16 03:49:55;;;;;;;0.30;0.30;;;-0.90;99.90;;;;;;4415848;32;20074;-74
2021/01/16 03:52:29;;;;;;;0.45;0.45;;;-0.90;99.90;;;;;;4416800;32;20074;-74
2021/01/16 03:54:54;;;;;;;0.52;0.52;;;-0.90;99.90;;;;;;4416258;32;20058;-74
2021/01/16 03:57:21;;;;;;;0.40;0.40;;;-0.90;99.90;;;;;;4417016;32;20073;-74
2021/01/16 03:59:46;;;;;;;0.40;0.40;;;-0.80;99.90;;;;;;4415876;32;20073;-76
2021/01/16 04:02:12;;;;;;;0.40;0.40;;;-0.80;99.90;;;;;;4416448;32;20065;-75
2021/01/16 04:04:37;;;;;;;0.35;0.35;;;-0.70;99.90;;;;;;4415916;32;20065;-74
2021/01/16 04:07:06;;;;;;;0.30;0.30;;;-0.80;99.90;;;;;;4408316;32;20125;-75
2021/01/16 04:09:31;;;;;;;0.40;0.40;;;-0.80;99.90;;;;;;4400479;32;20090;-74
2021/01/16 04:11:57;;;;;;;0.30;0.30;;;-0.80;99.90;;;;;;4408489;32;20124;-74
2021/01/16 04:14:23;;;;;;;0.37;0.37;;;-0.80;99.90;;;;;;4415407;32;20069;-75
2021/01/16 04:16:48;;;;;;;0.40;0.40;;;-0.80;99.90;;;;;;4415948;32;20065;-74
2021/01/16 04:19:14;;;;;;;0.40;0.40;;;-0.80;99.90;;;;;;4415476;32;20108;-74
2021/01/16 04:21:39;;;;;;;3.62;1.40;;;-0.80;99.90;;;;;;4416573;32;20065;-74
2021/01/16 04:24:05;;;;;;;0.40;0.40;;;-0.80;99.90;;;;;;4415757;32;20086;-74
2021/01/16 04:26:30;;;;;;;0.40;0.40;;;-0.80;99.90;;;;;;4415335;32;20121;-74
2021/01/16 04:28:56;;;;;;;0.40;0.40;;;-0.80;99.90;;;;;;4415258;32;20120;-75
2021/01/16 04:31:21;;;;;;;3.15;0.82;;;-0.70;99.90;;;;;;4415479;32;20066;-74
2021/01/16 04:33:47;;;;;;;0.30;0.30;;;-0.70;99.90;;;;;;4415581;32;20065;-75
2021/01/16 04:36:12;;;;;;;0.40;0.40;;;-0.70;99.90;;;;;;4415525;32;20077;-76
2021/01/16 04:38:38;;;;;;;0.37;0.37;;;-0.80;99.90;;;;;;4414601;32;20066;-75
2021/01/16 04:41:03;;;;;;;0.40;0.40;;;-0.70;99.90;;;;;;4415141;32;20082;-75
2021/01/16 04:43:29;;;;;;;0.30;0.30;;;-0.70;99.90;;;;;;4415703;32;20087;-75
2021/01/16 04:46:03;;;;;;;0.40;0.40;;;-0.60;99.90;;;;;;4415530;32;20117;-75
2021/01/16 04:48:30;;;;;;;0.30;0.30;;;-0.70;99.90;;;;;;4415639;32;20535;-75
2021/01/16 04:50:59;;;;;;;4.30;2.25;;;-0.70;99.90;;;;;;4414759;32;20074;-75
2021/01/16 04:53:36;;;;;;;0.40;0.40;;;-0.70;99.90;;;;;;4414981;32;20077;-75
2021/01/16 04:56:03;;;;;;;0.40;0.40;;;-0.70;99.90;;;;;;4415238;32;20615;-75
2021/01/16 04:58:32;;;;;;;0.75;0.75;;;-0.80;99.90;;;;;;4415803;32;20523;-75
2021/01/16 05:00:58;;;;;;;0.43;0.43;;;-0.70;99.90;;;;;;4415102;32;20169;-75
2021/01/16 05:03:26;;;;;;;0.40;0.40;;;-0.70;99.90;;;;;;4416126;32;20069;-75
2021/01/16 05:05:55;;;;;;;2.55;0.95;;;-0.60;99.90;;;;;;4414736;32;20120;-75
2021/01/16 05:08:21;;;;;;;0.35;0.35;;;-0.60;99.90;;;;;;4384906;32;20507;-75
2021/01/16 05:10:50;;;;;;;0.52;0.45;;;-0.60;99.90;;;;;;4385812;32;20493;-75
2021/01/16 05:13:17;;;;;;;0.52;0.52;;;-0.60;99.90;;;;;;4415109;32;20119;-75
2021/01/16 05:15:45;;;;;;;0.40;0.40;;;-0.50;99.90;;;;;;4414583;32;20165;-75
2021/01/16 05:18:13;;;;;;;0.30;0.30;;;-0.60;99.90;;;;;;4414724;32;20429;-75
2021/01/16 05:20:42;;;;;;;0.62;0.62;;;-0.60;99.90;;;;;;4414382;32;20066;-75
2021/01/16 05:23:12;;;;;;;0.37;0.37;;;-0.60;99.90;;;;;;4415392;32;20069;-75
2021/01/16 05:25:42;;;;;;;0.55;0.55;;;-0.60;99.90;;;;;;4414780;32;20577;-75
2021/01/16 05:28:09;;;;;;;0.50;0.50;;;-0.50;99.90;;;;;;4416155;32;20065;-75
2021/01/16 05:30:56;;;;;;;0.40;0.40;;;-0.50;99.90;;;;;;4414833;32;20061;-75
2021/01/16 05:33:24;;;;;;;0.30;0.30;;;-0.50;99.90;;;;;;4415071;32;20065;-75
2021/01/16 05:35:52;;;;;;;0.60;0.60;;;-0.50;99.90;;;;;;4414604;32;20510;-75
2021/01/16 05:38:23;;;;;;;0.40;0.40;;;-0.60;99.90;;;;;;4413823;32;20140;-75
2021/01/16 05:40:49;;;;;;;0.40;0.40;;;-0.70;99.90;;;;;;4414207;32;20078;-75
2021/01/16 05:43:19;;;;;;;2.12;0.85;;;-0.70;99.90;;;;;;4414691;32;20401;-75
2021/01/16 05:45:45;;;;;;;0.45;0.45;;;-0.70;99.90;;;;;;4414637;32;20094;-75
2021/01/16 05:48:12;;;;;;;0.40;0.40;;;-0.70;99.90;;;;;;4415078;32;20065;-75
2021/01/16 05:50:39;;;;;;;0.65;0.65;;;-0.60;99.90;;;;;;4413281;32;20058;-74
2021/01/16 05:53:05;;;;;;;0.60;0.60;;;-0.60;99.90;;;;;;4414687;32;20102;-75
2021/01/16 05:55:33;;;;;;;0.30;0.30;;;-0.60;99.90;;;;;;4415129;32;20070;-75
2021/01/16 05:58:04;;;;;;;17.35;1.67;;;-0.50;99.90;;;;;;4416002;32;20077;-75
2021/01/16 06:00:35;;;;;;;0.40;0.40;;;-0.50;99.90;;;;;;4415717;32;20085;-75
2021/01/16 06:03:01;;;;;;;0.40;0.40;;;-0.50;99.90;;;;;;4415673;32;20241;-76
2021/01/16 06:05:28;;;;;;;0.30;0.30;;;-0.50;99.90;;;;;;4414485;32;20086;-76
2021/01/16 06:07:54;;;;;;;0.65;0.65;;;-0.40;99.90;;;;;;4401547;32;20061;-75
2021/01/16 06:10:21;;;;;;;0.30;0.30;;;-0.40;99.90;;;;;;4400484;32;20054;-76
2021/01/16 06:12:49;;;;;;;1.23;1.02;;;-0.50;99.90;;;;;;4413994;32;20062;-74
2021/01/16 06:15:16;;;;;;;0.40;0.40;;;-0.50;99.90;;;;;;4413920;32;20078;-75
2021/01/16 06:17:47;;;;;;;0.37;0.37;;;-0.50;99.90;;;;;;4414300;32;20085;-74
2021/01/16 06:20:16;;;;;;;0.55;0.55;;;-0.50;99.90;;;;;;4413543;32;20082;-75
2021/01/16 06:22:42;;;;;;;0.30;0.30;;;-0.40;99.90;;;;;;4413420;32;20065;-75
2021/01/16 06:25:24;;;;;;;0.40;0.40;;;-0.40;99.90;;;;;;4414157;32;20066;-75
2021/01/16 06:27:51;;;;;;;0.45;0.45;;;-0.40;99.90;;;;;;4415106;32;20119;-74
2021/01/16 06:30:19;;;;;;;0.40;0.40;;;-0.40;99.90;;;;;;4414303;32;20086;-74
2021/01/16 06:32:51;;;;;;;0.52;0.52;;;-0.40;99.90;;;;;;4414117;32;20070;-74
2021/01/16 06:35:18;;;;;;;0.40;0.40;;;-0.40;99.90;;;;;;4414365;32;20512;-74
2021/01/16 06:37:48;;;;;;;0.40;0.40;;;-0.40;99.90;;;;;;4413848;32;20061;-75
2021/01/16 06:40:26;;;;;;;0.50;0.50;;;-0.30;99.90;;;;;;4413520;32;20073;-74
2021/01/16 06:42:53;;;;;;;0.40;0.40;;;-0.40;99.90;;;;;;4414040;32;20535;-76
2021/01/16 06:45:23;;;;;;;0.30;0.30;;;-0.40;99.90;;;;;;4414188;32;20499;-76
2021/01/16 06:47:55;;;;;;;0.60;0.60;;;-0.50;99.90;;;;;;4396029;32;20516;-75
2021/01/16 06:50:21;;;;;;;0.30;0.30;;;-0.50;99.90;;;;;;4398570;32;20498;-75
2021/01/16 06:52:46;;;;;;;0.50;0.50;;;-0.50;99.90;;;;;;4397939;32;20069;-75
2021/01/16 06:55:17;;;;;;;0.45;0.45;;;-0.50;99.90;;;;;;4399013;32;20070;-75
2021/01/16 06:57:42;;;;;;;0.40;0.40;;;-0.50;99.90;;;;;;4398889;32;20085;-75
2021/01/16 07:00:09;;;;;;;0.30;0.30;;;-0.50;99.90;;;;;;4398850;32;20460;-75
2021/01/16 07:02:37;;;;;;;0.82;0.82;;;-0.50;99.90;;;;;;4401413;32;20086;-76
2021/01/16 07:05:06;;;;;;;0.40;0.40;;;-0.50;99.90;;;;;;4402653;32;20070;-75
2021/01/16 07:07:38;;;;;;;0.37;0.37;;;-0.40;99.90;;;;;;4400778;32;20549;-75
2021/01/16 07:10:13;;;;;;;0.30;0.30;;;-0.40;99.90;;;;;;4401267;32;20084;-75
2021/01/16 07:12:46;;;;;;;0.40;0.40;;;-0.40;99.90;;;;;;4413327;32;20414;-75
2021/01/16 07:15:11;;;;;;;0.40;0.40;;;-0.40;99.90;;;;;;4416409;32;20065;-75
2021/01/16 07:17:38;;;;;;;0.40;0.40;;;-0.40;99.90;;;;;;4416165;32;20065;-75
2021/01/16 07:20:05;;;;;;;0.30;0.30;;;-0.40;99.90;;;;;;4414605;32;20507;-75
2021/01/16 07:22:38;;;;;;;1.02;0.82;;;-0.50;99.90;;;;;;4418982;32;20089;-75
2021/01/16 07:25:06;;;;;;;0.30;0.30;;;-0.40;99.90;;;;;;4422446;32;20396;-74
2021/01/16 07:27:33;;;;;;;0.40;0.40;;;-0.40;99.90;;;;;;4416033;32;20140;-74
2021/01/16 07:30:00;;;;;;;0.40;0.40;;;-0.40;99.90;;;;;;4416694;32;20074;-74
2021/01/16 07:32:44;;;;;;;1.77;1.42;;;-0.30;99.90;;;;;;4416534;32;20116;-74
2021/01/16 07:35:16;;;;;;;0.40;0.40;;;-0.40;99.90;;;;;;4417885;32;20124;-74
2021/01/16 07:37:54;;;;;;;0.40;0.40;;;-0.40;99.90;;;;;;4417875;32;20441;-75
2021/01/16 07:40:23;;;;;;;0.40;0.40;;;-0.40;99.90;;;;;;4417392;32;20077;-75
2021/01/16 07:42:57;;;;;;;1.02;0.70;;;-0.40;99.90;;;;;;4416353;32;20566;-74
2021/01/16 07:45:29;;;;;;;0.57;0.57;;;-0.40;99.90;;;;;;4416341;32;20514;-74
2021/01/16 07:47:57;;;;;;;0.40;0.40;;;-0.40;99.90;;;;;;4415458;32;20082;-74
2021/01/16 07:50:24;;;;;;;0.30;0.30;;;-0.50;99.90;;;;;;4415689;32;20502;-74
2021/01/16 07:53:01;;;;;;;0.55;0.55;;;-0.40;99.90;;;;;;4415499;32;20544;-74
2021/01/16 07:55:45;;;;;;;0.30;0.30;;;-0.50;99.90;;;;;;4415686;32;20065;-74
2021/01/16 07:58:36;;;;;;;1.23;1.12;;;-0.50;99.90;;;;;;4416084;32;20508;-75
2021/01/16 08:01:22;;;;;;;0.47;0.47;;;-0.50;99.90;;;;;;4416033;32;20074;-75
2021/01/16 08:04:23;;;;;;;0.30;0.30;;;-0.50;99.90;;;;;;4415770;32;20520;-75
2021/01/16 08:07:09;;;;;;;0.40;0.40;;;-0.40;99.90;;;;;;4408840;32;20070;-75
2021/01/16 08:09:54;;;;;;;0.62;0.62;;;-0.30;99.90;;;;;;4400048;32;20134;-75
2021/01/16 08:12:22;;;;;;;0.98;0.93;;;-0.30;99.90;;;;;;4410612;32;20061;-75
2021/01/16 08:14:48;;;;;;;3.72;0.95;;;-0.30;99.90;;;;;;4415754;32;20128;-75
2021/01/16 08:17:18;;;;;;;0.47;0.47;;;-0.30;99.90;;;;;;4415455;32;20551;-75
2021/01/16 08:20:02;;;;;;;0.70;0.70;;;-0.30;99.90;;;;;;4415232;32;20066;-75
2021/01/16 08:22:38;;;;;;;0.40;0.40;;;-0.40;99.90;;;;;;4415386;32;20074;-75
2021/01/16 08:25:09;;;;;;;0.68;0.68;;;-0.40;99.90;;;;;;4415170;32;20124;-75
2021/01/16 08:27:37;;;;;;;0.82;0.82;;;-0.40;99.90;;;;;;4415494;32;20061;-75
2021/01/16 08:30:08;;;;;;;1.23;1.12;;;-0.30;99.90;;;;;;4415845;32;20120;-75
2021/01/16 08:32:55;;;;;;;0.40;0.40;;;-0.30;99.90;;;;;;4415629;32;20078;-75
2021/01/16 08:35:31;;;;;;;0.40;0.40;;;-0.40;99.90;;;;;;4415532;32;20081;-74
2021/01/16 08:38:17;;;;;;;0.50;0.50;;;-0.40;99.90;;;;;;4415220;32;20077;-74
2021/01/16 08:40:55;;;;;;;0.40;0.40;;;-0.40;99.90;;;;;;4412077;32;93802;-74
2021/01/16 08:43:29;;;;;;;0.30;0.30;;;-0.30;99.90;;;;;;4415536;32;20125;-74
2021/01/16 08:46:17;;;;;;;0.52;0.52;;;-0.30;99.90;;;;;;4416092;32;20053;-74
2021/01/16 08:48:57;;;;;;;0.55;0.55;;;-0.30;99.90;;;;;;4414096;32;20064;-74
2021/01/16 08:51:27;;;;;;;0.45;0.45;;;-0.30;99.90;;;;;;4415377;32;20120;-74
2021/01/16 08:54:10;;;;;;;0.40;0.40;;;-0.30;99.90;;;;;;4413594;32;20074;-74
2021/01/16 08:56:36;;;;;;;0.50;0.50;;;-0.30;99.90;;;;;;4415649;32;20077;-74
2021/01/16 08:59:27;;;;;;;0.35;0.35;;;-0.20;99.90;;;;;;4415460;32;20456;-74
2021/01/16 09:02:04;;;;;;;0.50;0.50;;;-0.20;99.90;;;;;;4415345;32;20296;-74
2021/01/16 09:04:32;;;;;;;0.80;0.80;;;-0.20;99.90;;;;;;4415182;32;20085;-74
2021/01/16 09:07:17;;;;;;;0.40;0.40;;;-0.20;99.90;;;;;;4408152;32;20081;-74
2021/01/16 09:10:04;;;;;;;1.45;1.08;;;-0.30;99.90;;;;;;4399674;32;20082;-74
2021/01/16 09:12:35;;;;;;;0.43;0.43;;;-0.20;99.90;;;;;;4410084;32;20530;-74
2021/01/16 09:15:23;;;;;;;0.40;0.40;;;-0.10;99.90;;;;;;4414762;32;20489;-74
2021/01/16 09:18:08;;;;;;;0.40;0.40;;;-0.20;99.90;;;;;;4413843;32;20124;-74
2021/01/16 09:20:38;;;;;;;0.40;0.40;;;-0.20;99.90;;;;;;4414298;32;20139;-75
2021/01/16 09:23:23;;;;;;;0.50;0.50;;;-0.10;99.90;;;;;;4414594;32;20077;-74
2021/01/16 09:25:50;;;;;;;0.43;0.43;;;-0.20;99.90;;;;;;4414577;32;20608;-75
2021/01/16 09:28:16;;;;;;;0.62;0.62;;;-0.20;99.90;;;;;;4415352;32;20130;-74
2021/01/16 09:30:42;;;;;;;0.40;0.40;;;-0.20;99.90;;;;;;4415280;32;20136;-74
2021/01/16 09:33:24;;;;;;;0.75;0.75;;;-0.20;99.90;;;;;;4414487;32;20468;-74
2021/01/16 09:35:51;;;;;;;0.40;0.40;;;-0.20;99.90;;;;;;4414281;32;20086;-75
2021/01/16 09:38:19;;;;;;;1.65;1.15;;;-0.10;99.90;;;;;;4414351;32;20078;-74
2021/01/16 09:40:45;;;;;;;0.40;0.40;;;-0.10;99.90;;;;;;4413948;32;20065;-74
2021/01/16 09:43:20;;;;;;;2.45;1.02;;;-0.10;99.90;;;;;;4415217;32;20121;-76
2021/01/16 09:45:51;;;;;;;0.47;0.47;;;0.00;99.90;;;;;;4414580;32;20078;-74
2021/01/16 09:48:33;;;;;;;;;;;0.00;99.90;;;;;;4414842;32;20506;-74
2021/01/16 09:51:01;;;;;;;0.32;0.32;;;0.00;99.90;;;;;;4415323;32;19952;-73
2021/01/16 09:53:26;;;;;;;0.30;0.30;;;-0.10;99.90;;;;;;4415180;32;20102;-74
2021/01/16 09:55:54;;;;;;;0.50;0.50;;;0.10;99.90;;;;;;4414377;32;20050;-74
2021/01/16 09:58:39;;;;;;;0.85;0.65;;;0.00;99.90;;;;;;4414502;32;20586;-74
2021/01/16 10:01:22;;;;;;;0.40;0.40;;;0.00;99.90;;;;;;4399241;32;20507;-74
2021/01/16 10:03:49;;;;;;;0.30;0.30;;;0.00;99.90;;;;;;4398998;32;20138;-75
2021/01/16 10:06:25;;;;;;;0.30;0.30;;;0.00;99.90;;;;;;4397007;32;20074;-75
2021/01/16 10:08:50;;;;;;;0.30;0.30;;;0.10;99.90;;;;;;4383905;32;20055;-74
2021/01/16 10:11:40;;;;;;;0.52;0.52;;;0.10;99.90;;;;;;4390961;32;20508;-74
2021/01/16 10:14:12;;;;;;;0.47;0.47;;;0.10;99.90;;;;;;4413939;32;20448;-73
2021/01/16 10:16:38;;;;;;;2.53;0.77;;;0.10;99.90;;;;;;4413907;32;20081;-73
2021/01/16 10:19:07;;;;;;;0.37;0.37;;;0.10;99.90;;;;;;4414043;32;20061;-74
2021/01/16 10:21:32;;;;;;;0.40;0.40;;;0.10;99.90;;;;;;4414996;32;20061;-74
2021/01/16 10:24:15;;;;;;;0.40;0.40;;;0.10;99.90;;;;;;4414657;32;20070;-75
2021/01/16 10:26:42;;;;;;;0.52;0.52;;;0.10;99.90;;;;;;4414240;32;20061;-74
2021/01/16 10:29:10;;;;;;;0.40;0.40;;;0.20;99.90;;;;;;4413660;32;20514;-76
2021/01/16 10:31:35;;;;;;;0.43;0.43;;;0.10;99.90;;;;;;4413971;32;20053;-76
2021/01/16 10:34:06;;;;;;;0.40;0.40;;;0.20;99.90;;;;;;4414408;32;20089;-74
2021/01/16 10:36:33;;;;;;;0.40;0.40;;;0.20;99.90;;;;;;4415133;32;20396;-75
2021/01/16 10:39:10;;;;;;;0.70;0.70;;;0.30;99.90;;;;;;4415123;32;20085;-75
2021/01/16 10:41:37;;;;;;;0.50;0.50;;;0.30;99.90;;;;;;4414064;32;20522;-75
2021/01/16 10:44:05;;;;;;;1.30;0.68;;;0.40;99.90;;;;;;4414807;32;20508;-73
2021/01/16 10:46:51;;;;;;;0.40;0.40;;;0.40;99.90;;;;;;4413825;32;20082;-75
2021/01/16 10:49:25;;;;;;;0.30;0.30;;;0.40;99.90;;;;;;4413941;32;20069;-74
2021/01/16 10:51:55;;;;;;;0.62;0.62;;;0.50;99.90;;;;;;4415457;32;20582;-74
2021/01/16 10:54:21;;;;;;;0.50;0.50;;;0.60;99.90;;;;;;4415081;32;20090;-75
2021/01/16 10:57:04;;;;;;;0.47;0.47;;;0.60;99.90;;;;;;4414693;32;20089;-74
2021/01/16 10:59:32;;;;;;;0.30;0.30;;;0.60;99.90;;;;;;4415371;32;20456;-75
2021/01/16 11:01:59;;;;;;;0.50;0.50;;;0.60;99.90;;;;;;4414156;32;20132;-74
2021/01/16 11:04:27;;;;;;;0.37;0.37;;;0.60;99.90;;;;;;4414394;32;20058;-74
2021/01/16 11:06:58;;;;;;;0.37;0.37;;;0.40;99.90;;;;;;4407565;32;20057;-74
2021/01/16 11:09:42;;;;;;;0.35;0.35;;;0.40;99.90;;;;;;4399275;32;20518;-74
2021/01/16 11:12:09;;;;;;;0.40;0.40;;;0.40;99.90;;;;;;4408685;32;20066;-74
2021/01/16 11:14:38;;;;;;;0.50;0.50;;;0.40;99.90;;;;;;4414216;32;20070;-74
2021/01/16 11:17:06;;;;;;;0.60;0.60;;;0.50;99.90;;;;;;4414014;32;20468;-74
2021/01/16 11:19:38;;;;;;;0.40;0.40;;;0.50;99.90;;;;;;4413910;32;20073;-74
2021/01/16 11:22:07;;;;;;;0.82;0.82;;;0.60;99.90;;;;;;4413808;32;20087;-74
2021/01/16 11:24:53;;;;;;;0.40;0.40;;;0.60;99.90;;;;;;4414366;32;20066;-74
2021/01/16 11:27:21;;;;;;;0.70;0.70;;;0.60;99.90;;;;;;4413072;32;20438;-74
2021/01/16 11:29:48;;;;;;;0.60;0.60;;;0.70;99.90;;;;;;4414271;32;20089;-75
2021/01/16 11:32:19;;;;;;;0.37;0.37;;;0.80;99.90;;;;;;4415012;32;20381;-75
2021/01/16 11:35:06;;;;;;;1.48;1.12;;;0.70;99.90;;;;;;4414026;32;20082;-75
2021/01/16 11:37:50;;;;;;;0.35;0.35;;;0.80;99.90;;;;;;4413414;32;20492;-74
2021/01/16 11:40:33;;;;;;;0.37;0.37;;;0.80;99.90;;;;;;4414108;32;20073;-74
2021/01/16 11:43:04;;;;;;;0.52;0.52;;;0.80;99.90;;;;;;4413452;32;20121;-74
2021/01/16 11:45:30;;;;;;;0.40;0.40;;;0.60;99.90;;;;;;4411165;32;20416;-74
2021/01/16 11:47:57;;;;;;;0.30;0.30;;;0.50;99.90;;;;;;4399143;32;20131;-74
2021/01/16 11:50:26;;;;;;;0.57;0.57;;;0.50;99.90;;;;;;4400438;32;20062;-74
2021/01/16 11:52:51;;;;;;;1.12;0.80;;;0.60;99.90;;;;;;4400080;32;20614;-74
2021/01/16 11:55:20;;;;;;;0.50;0.50;;;0.70;99.90;;;;;;4400555;32;20125;-74
2021/01/16 11:57:46;;;;;;;0.43;0.43;;;0.90;99.90;;;;;;4400513;32;20066;-75
2021/01/16 12:00:13;;;;;;;0.30;0.30;;;0.90;99.90;;;;;;4401008;32;20061;-75
2021/01/16 12:02:45;;;;;;;0.45;0.45;;;0.80;99.90;;;;;;4400810;32;20082;-75
2021/01/16 12:05:13;;;;;;;0.40;0.40;;;0.80;99.90;;;;;;4400808;32;20083;-74
2021/01/16 12:07:46;;;;;;;0.50;0.50;;;0.80;99.90;;;;;;4389002;32;20124;-74
2021/01/16 12:10:15;;;;;;;0.50;0.50;;;0.70;99.90;;;;;;4386342;32;20078;-74
2021/01/16 12:12:41;;;;;;;0.40;0.40;;;0.80;99.90;;;;;;4411121;32;20181;-75
2021/01/16 12:15:18;;;;;;;0.60;0.60;;;0.80;99.90;;;;;;4416408;32;20065;-74
2021/01/16 12:17:46;;;;;;;0.40;0.40;;;0.80;99.90;;;;;;4416459;32;20161;-75
2021/01/16 12:20:13;;;;;;;0.73;0.73;;;0.80;99.90;;;;;;4415024;32;20077;-75
2021/01/16 12:22:41;;;;;;;0.40;0.40;;;0.80;99.90;;;;;;4415113;32;20081;-74
2021/01/16 12:25:10;;;;;;;0.50;0.50;;;1.00;99.90;;;;;;4415915;32;20062;-74
2021/01/16 12:27:50;;;;;;;0.40;0.40;;;1.10;99.90;;;;;;4416431;32;20124;-74
2021/01/16 12:30:17;;;;;;;0.47;0.47;;;1.00;99.90;;;;;;4415535;32;20081;-74
2021/01/16 12:32:42;;;;;;;0.50;0.50;;;0.80;99.90;;;;;;4415386;32;20076;-74
2021/01/16 12:35:09;;;;;;;1.30;0.95;;;0.90;99.90;;;;;;4415482;32;20086;-74
2021/01/16 12:37:37;;;;;;;0.52;0.52;;;0.80;99.90;;;;;;4415162;32;20300;-74
2021/01/16 12:40:20;;;;;;;0.50;0.50;;;0.90;99.90;;;;;;4415275;32;20128;-74
2021/01/16 12:42:46;;;;;;;0.55;0.55;;;1.10;99.90;;;;;;4415964;32;20086;-74
2021/01/16 12:45:17;;;;;;;0.50;0.50;;;1.10;99.90;;;;;;4415855;32;20120;-74
2021/01/16 12:47:46;;;;;;;0.55;0.55;;;1.20;99.90;;;;;;4415197;32;20066;-74
2021/01/16 12:50:12;;;;;;;5.20;1.15;;;1.50;99.90;;;;;;4415546;32;20086;-74
2021/01/16 12:52:44;;;;;;;0.40;0.40;;;2.00;99.90;;;;;;4415121;32;20077;-75
2021/01/16 12:55:12;;;;;;;0.70;0.70;;;2.50;99.90;;;;;;4414879;32;20066;-74
2021/01/16 12:57:41;;;;;;;0.30;0.30;;;2.70;99.90;;;;;;4415139;32;20132;-75
2021/01/16 13:00:08;;;;;;;0.50;0.50;;;2.90;99.90;;;;;;4415593;32;20116;-75
2021/01/16 13:02:34;;;;;;;0.47;0.47;;;3.00;99.90;;;;;;4416075;32;20080;-75
2021/01/16 13:05:04;;;;;;;0.82;0.68;;;2.70;99.90;;;;;;4415561;32;20160;-74